sensor_id;sensor_type;location;lat;lon;timestamp;P1;durP1;ratioP1;P2;durP2;ratioP2
76119;SDS011;64852;48.092;-1.640;2022-12-20T00:01:55;34.23;;;31.33;;
76119;SDS011;64852;48.092;-1.640;2022-12-20T00:04:21;35.13;;;32.00;;
76119;SDS011;64852;48.092;-1.640;2022-12-20T00:06:46;33.17;;;30.30;;
76119;SDS011;64852;48.092;-1.640;2022-12-20T00:09:12;34.87;;;31.63;;
76119;SDS011;64852;48.092;-1.640;2022-12-20T00:11:38;35.63;;;32.53;;
76119;SDS011;64852;48.092;-1.640;2022-12-20T00:14:05;34.50;;;31.25;;
76119;SDS011;64852;48.092;-1.640;2022-12-20T00:16:31;33.33;;;30.42;;
76119;SDS011;64852;48.092;-1.640;2022-12-20T00:18:58;33.22;;;30.35;;
76119;SDS011;64852;48.092;-1.640;2022-12-20T00:21:27;33.10;;;30.23;;
76119;SDS011;64852;48.092;-1.640;2022-12-20T00:23:53;34.55;;;31.60;;
76119;SDS011;64852;48.092;-1.640;2022-12-20T00:31:15;32.90;;;30.08;;
76119;SDS011;64852;48.092;-1.640;2022-12-20T00:33:43;34.05;;;30.95;;
76119;SDS011;64852;48.092;-1.640;2022-12-20T00:36:10;33.55;;;30.55;;
76119;SDS011;64852;48.092;-1.640;2022-12-20T00:38:36;32.83;;;30.02;;
76119;SDS011;64852;48.092;-1.640;2022-12-20T00:41:04;33.40;;;30.50;;
76119;SDS011;64852;48.092;-1.640;2022-12-20T00:43:37;33.42;;;30.38;;
76119;SDS011;64852;48.092;-1.640;2022-12-20T00:46:05;32.60;;;29.70;;
76119;SDS011;64852;48.092;-1.640;2022-12-20T00:48:31;35.72;;;32.72;;
76119;SDS011;64852;48.092;-1.640;2022-12-20T00:53:28;34.45;;;31.55;;
76119;SDS011;64852;48.092;-1.640;2022-12-20T00:55:54;34.35;;;31.50;;
76119;SDS011;64852;48.092;-1.640;2022-12-20T00:58:19;35.97;;;32.42;;
76119;SDS011;64852;48.092;-1.640;2022-12-20T01:00:45;35.80;;;32.83;;
76119;SDS011;64852;48.092;-1.640;2022-12-20T01:03:12;37.63;;;34.53;;
76119;SDS011;64852;48.092;-1.640;2022-12-20T01:05:37;34.20;;;30.98;;
76119;SDS011;64852;48.092;-1.640;2022-12-20T01:08:03;32.58;;;29.77;;
76119;SDS011;64852;48.092;-1.640;2022-12-20T01:10:29;32.08;;;29.35;;
76119;SDS011;64852;48.092;-1.640;2022-12-20T01:12:55;34.50;;;31.27;;
76119;SDS011;64852;48.092;-1.640;2022-12-20T01:15:21;33.27;;;30.33;;
76119;SDS011;64852;48.092;-1.640;2022-12-20T01:17:46;32.95;;;29.95;;
76119;SDS011;64852;48.092;-1.640;2022-12-20T01:20:12;32.10;;;29.20;;
76119;SDS011;64852;48.092;-1.640;2022-12-20T01:22:38;32.15;;;29.35;;
76119;SDS011;64852;48.092;-1.640;2022-12-20T01:25:04;32.00;;;29.30;;
76119;SDS011;64852;48.092;-1.640;2022-12-20T01:27:30;33.17;;;30.25;;
76119;SDS011;64852;48.092;-1.640;2022-12-20T01:29:56;33.50;;;30.05;;
76119;SDS011;64852;48.092;-1.640;2022-12-20T01:32:22;34.07;;;30.73;;
76119;SDS011;64852;48.092;-1.640;2022-12-20T01:34:47;33.97;;;31.07;;
76119;SDS011;64852;48.092;-1.640;2022-12-20T01:37:13;33.40;;;30.47;;
76119;SDS011;64852;48.092;-1.640;2022-12-20T01:39:38;34.40;;;31.40;;
76119;SDS011;64852;48.092;-1.640;2022-12-20T01:42:04;32.73;;;29.93;;
76119;SDS011;64852;48.092;-1.640;2022-12-20T01:46:56;33.73;;;30.83;;
76119;SDS011;64852;48.092;-1.640;2022-12-20T01:49:32;33.63;;;30.65;;
76119;SDS011;64852;48.092;-1.640;2022-12-20T01:52:04;32.47;;;29.70;;
76119;SDS011;64852;48.092;-1.640;2022-12-20T01:54:45;34.83;;;31.17;;
76119;SDS011;64852;48.092;-1.640;2022-12-20T01:57:30;33.95;;;31.08;;
76119;SDS011;64852;48.092;-1.640;2022-12-20T02:00:00;32.72;;;29.92;;
76119;SDS011;64852;48.092;-1.640;2022-12-20T02:02:28;32.80;;;29.90;;
76119;SDS011;64852;48.092;-1.640;2022-12-20T02:04:54;36.60;;;33.50;;
76119;SDS011;64852;48.092;-1.640;2022-12-20T02:07:23;36.67;;;33.37;;
76119;SDS011;64852;48.092;-1.640;2022-12-20T02:09:53;36.15;;;33.00;;
76119;SDS011;64852;48.092;-1.640;2022-12-20T02:12:22;38.08;;;34.92;;
76119;SDS011;64852;48.092;-1.640;2022-12-20T02:15:03;36.95;;;33.63;;
76119;SDS011;64852;48.092;-1.640;2022-12-20T02:18:09;37.33;;;34.13;;
76119;SDS011;64852;48.092;-1.640;2022-12-20T02:34:20;33.67;;;30.52;;
76119;SDS011;64852;48.092;-1.640;2022-12-20T02:36:49;33.47;;;30.48;;
76119;SDS011;64852;48.092;-1.640;2022-12-20T02:41:46;33.63;;;30.55;;
76119;SDS011;64852;48.092;-1.640;2022-12-20T02:44:17;33.60;;;30.65;;
76119;SDS011;64852;48.092;-1.640;2022-12-20T02:47:04;34.95;;;31.75;;
76119;SDS011;64852;48.092;-1.640;2022-12-20T02:49:36;32.80;;;29.90;;
76119;SDS011;64852;48.092;-1.640;2022-12-20T02:52:08;33.20;;;30.20;;
76119;SDS011;64852;48.092;-1.640;2022-12-20T02:54:36;33.65;;;30.60;;
76119;SDS011;64852;48.092;-1.640;2022-12-20T02:59:59;35.13;;;30.83;;
76119;SDS011;64852;48.092;-1.640;2022-12-20T03:02:26;33.35;;;30.15;;
76119;SDS011;64852;48.092;-1.640;2022-12-20T03:04:53;32.70;;;29.80;;
76119;SDS011;64852;48.092;-1.640;2022-12-20T03:07:20;35.03;;;31.85;;
76119;SDS011;64852;48.092;-1.640;2022-12-20T03:09:46;33.88;;;30.63;;
76119;SDS011;64852;48.092;-1.640;2022-12-20T03:12:12;32.73;;;29.83;;
76119;SDS011;64852;48.092;-1.640;2022-12-20T03:14:40;34.75;;;30.38;;
76119;SDS011;64852;48.092;-1.640;2022-12-20T03:17:06;32.42;;;29.42;;
76119;SDS011;64852;48.092;-1.640;2022-12-20T03:19:32;36.72;;;33.63;;
76119;SDS011;64852;48.092;-1.640;2022-12-20T03:21:58;35.47;;;32.47;;
76119;SDS011;64852;48.092;-1.640;2022-12-20T03:24:24;35.35;;;32.25;;
76119;SDS011;64852;48.092;-1.640;2022-12-20T03:26:50;37.80;;;34.50;;
76119;SDS011;64852;48.092;-1.640;2022-12-20T03:29:15;37.63;;;34.23;;
76119;SDS011;64852;48.092;-1.640;2022-12-20T03:31:41;36.83;;;33.73;;
76119;SDS011;64852;48.092;-1.640;2022-12-20T03:34:07;37.30;;;30.80;;
76119;SDS011;64852;48.092;-1.640;2022-12-20T03:36:32;31.90;;;28.90;;
76119;SDS011;64852;48.092;-1.640;2022-12-20T03:38:58;33.50;;;30.30;;
76119;SDS011;64852;48.092;-1.640;2022-12-20T03:41:24;32.97;;;30.08;;
76119;SDS011;64852;48.092;-1.640;2022-12-20T03:43:51;38.60;;;30.33;;
76119;SDS011;64852;48.092;-1.640;2022-12-20T03:46:17;33.08;;;30.17;;
76119;SDS011;64852;48.092;-1.640;2022-12-20T03:48:43;31.90;;;29.10;;
76119;SDS011;64852;48.092;-1.640;2022-12-20T03:51:09;32.55;;;29.65;;
76119;SDS011;64852;48.092;-1.640;2022-12-20T03:53:35;34.30;;;31.05;;
76119;SDS011;64852;48.092;-1.640;2022-12-20T03:56:00;32.77;;;29.67;;
76119;SDS011;64852;48.092;-1.640;2022-12-20T03:58:26;33.33;;;30.33;;
76119;SDS011;64852;48.092;-1.640;2022-12-20T04:00:51;33.87;;;30.63;;
76119;SDS011;64852;48.092;-1.640;2022-12-20T04:03:17;32.27;;;29.27;;
76119;SDS011;64852;48.092;-1.640;2022-12-20T04:05:43;32.60;;;29.67;;
76119;SDS011;64852;48.092;-1.640;2022-12-20T04:08:08;32.50;;;29.50;;
76119;SDS011;64852;48.092;-1.640;2022-12-20T04:10:34;33.63;;;30.55;;
76119;SDS011;64852;48.092;-1.640;2022-12-20T04:13:22;34.60;;;31.50;;
76119;SDS011;64852;48.092;-1.640;2022-12-20T04:16:20;34.30;;;31.10;;
76119;SDS011;64852;48.092;-1.640;2022-12-20T04:18:47;45.10;;;32.15;;
76119;SDS011;64852;48.092;-1.640;2022-12-20T04:21:13;34.93;;;31.37;;
76119;SDS011;64852;48.092;-1.640;2022-12-20T04:23:40;34.78;;;31.58;;
76119;SDS011;64852;48.092;-1.640;2022-12-20T04:26:07;34.08;;;30.98;;
76119;SDS011;64852;48.092;-1.640;2022-12-20T04:28:34;35.00;;;31.50;;
76119;SDS011;64852;48.092;-1.640;2022-12-20T04:31:00;35.45;;;32.25;;
76119;SDS011;64852;48.092;-1.640;2022-12-20T04:35:53;32.95;;;29.85;;
76119;SDS011;64852;48.092;-1.640;2022-12-20T04:38:19;37.50;;;34.17;;
76119;SDS011;64852;48.092;-1.640;2022-12-20T04:40:49;37.00;;;33.80;;
76119;SDS011;64852;48.092;-1.640;2022-12-20T04:43:16;39.80;;;36.50;;
76119;SDS011;64852;48.092;-1.640;2022-12-20T04:45:42;37.90;;;34.60;;
76119;SDS011;64852;48.092;-1.640;2022-12-20T04:48:09;38.95;;;35.45;;
76119;SDS011;64852;48.092;-1.640;2022-12-20T04:50:35;36.65;;;33.45;;
76119;SDS011;64852;48.092;-1.640;2022-12-20T04:53:00;39.63;;;34.87;;
76119;SDS011;64852;48.092;-1.640;2022-12-20T04:55:45;36.22;;;32.92;;
76119;SDS011;64852;48.092;-1.640;2022-12-20T04:58:10;40.37;;;36.23;;
76119;SDS011;64852;48.092;-1.640;2022-12-20T05:00:36;33.13;;;30.05;;
76119;SDS011;64852;48.092;-1.640;2022-12-20T05:03:01;34.27;;;31.27;;
76119;SDS011;64852;48.092;-1.640;2022-12-20T05:05:27;34.38;;;31.27;;
76119;SDS011;64852;48.092;-1.640;2022-12-20T05:07:53;34.63;;;31.55;;
76119;SDS011;64852;48.092;-1.640;2022-12-20T05:12:45;32.92;;;30.02;;
76119;SDS011;64852;48.092;-1.640;2022-12-20T05:15:11;32.90;;;29.90;;
76119;SDS011;64852;48.092;-1.640;2022-12-20T05:17:37;32.47;;;29.58;;
76119;SDS011;64852;48.092;-1.640;2022-12-20T05:20:03;35.25;;;31.95;;
76119;SDS011;64852;48.092;-1.640;2022-12-20T05:22:30;38.05;;;34.75;;
76119;SDS011;64852;48.092;-1.640;2022-12-20T05:25:14;37.28;;;33.97;;
76119;SDS011;64852;48.092;-1.640;2022-12-20T05:27:58;36.80;;;33.50;;
76119;SDS011;64852;48.092;-1.640;2022-12-20T05:30:24;38.77;;;35.37;;
76119;SDS011;64852;48.092;-1.640;2022-12-20T05:32:50;40.38;;;36.42;;
76119;SDS011;64852;48.092;-1.640;2022-12-20T05:35:16;37.70;;;34.40;;
76119;SDS011;64852;48.092;-1.640;2022-12-20T05:37:41;34.53;;;31.50;;
76119;SDS011;64852;48.092;-1.640;2022-12-20T05:40:07;36.70;;;33.60;;
76119;SDS011;64852;48.092;-1.640;2022-12-20T05:42:34;42.95;;;34.15;;
76119;SDS011;64852;48.092;-1.640;2022-12-20T05:45:00;37.07;;;33.90;;
76119;SDS011;64852;48.092;-1.640;2022-12-20T05:47:26;37.00;;;33.27;;
76119;SDS011;64852;48.092;-1.640;2022-12-20T05:49:52;35.55;;;32.45;;
76119;SDS011;64852;48.092;-1.640;2022-12-20T05:52:18;37.97;;;33.70;;
76119;SDS011;64852;48.092;-1.640;2022-12-20T05:54:43;39.13;;;35.72;;
76119;SDS011;64852;48.092;-1.640;2022-12-20T05:57:09;35.73;;;32.67;;
76119;SDS011;64852;48.092;-1.640;2022-12-20T05:59:35;32.00;;;29.10;;
76119;SDS011;64852;48.092;-1.640;2022-12-20T06:02:00;31.80;;;28.90;;
76119;SDS011;64852;48.092;-1.640;2022-12-20T06:04:26;32.57;;;29.57;;
76119;SDS011;64852;48.092;-1.640;2022-12-20T06:06:52;31.10;;;28.37;;
76119;SDS011;64852;48.092;-1.640;2022-12-20T06:09:17;30.80;;;27.90;;
76119;SDS011;64852;48.092;-1.640;2022-12-20T06:11:43;29.67;;;26.87;;
76119;SDS011;64852;48.092;-1.640;2022-12-20T06:14:08;30.20;;;27.40;;
76119;SDS011;64852;48.092;-1.640;2022-12-20T06:16:34;35.37;;;31.97;;
76119;SDS011;64852;48.092;-1.640;2022-12-20T06:19:00;32.38;;;29.38;;
76119;SDS011;64852;48.092;-1.640;2022-12-20T06:21:26;35.40;;;32.30;;
76119;SDS011;64852;48.092;-1.640;2022-12-20T06:23:52;34.70;;;31.67;;
76119;SDS011;64852;48.092;-1.640;2022-12-20T06:26:18;34.75;;;31.70;;
76119;SDS011;64852;48.092;-1.640;2022-12-20T06:28:47;35.47;;;32.47;;
76119;SDS011;64852;48.092;-1.640;2022-12-20T06:31:16;38.35;;;35.05;;
76119;SDS011;64852;48.092;-1.640;2022-12-20T06:33:42;35.28;;;32.20;;
76119;SDS011;64852;48.092;-1.640;2022-12-20T06:36:08;35.25;;;32.15;;
76119;SDS011;64852;48.092;-1.640;2022-12-20T06:38:34;34.72;;;31.73;;
76119;SDS011;64852;48.092;-1.640;2022-12-20T06:41:00;33.72;;;30.83;;
76119;SDS011;64852;48.092;-1.640;2022-12-20T06:43:26;38.00;;;34.70;;
76119;SDS011;64852;48.092;-1.640;2022-12-20T06:45:52;38.72;;;35.22;;
76119;SDS011;64852;48.092;-1.640;2022-12-20T06:48:18;35.88;;;32.58;;
76119;SDS011;64852;48.092;-1.640;2022-12-20T06:50:46;33.03;;;30.02;;
76119;SDS011;64852;48.092;-1.640;2022-12-20T06:53:12;31.42;;;28.52;;
76119;SDS011;64852;48.092;-1.640;2022-12-20T06:55:38;30.98;;;28.13;;
76119;SDS011;64852;48.092;-1.640;2022-12-20T06:58:04;32.10;;;29.20;;
76119;SDS011;64852;48.092;-1.640;2022-12-20T07:00:30;31.47;;;28.57;;
76119;SDS011;64852;48.092;-1.640;2022-12-20T07:02:56;31.38;;;28.48;;
76119;SDS011;64852;48.092;-1.640;2022-12-20T07:05:21;32.93;;;30.13;;
76119;SDS011;64852;48.092;-1.640;2022-12-20T07:07:47;31.77;;;28.83;;
76119;SDS011;64852;48.092;-1.640;2022-12-20T07:10:13;32.60;;;29.58;;
76119;SDS011;64852;48.092;-1.640;2022-12-20T07:12:39;31.87;;;28.97;;
76119;SDS011;64852;48.092;-1.640;2022-12-20T07:15:05;30.30;;;27.50;;
76119;SDS011;64852;48.092;-1.640;2022-12-20T07:17:32;31.88;;;28.98;;
76119;SDS011;64852;48.092;-1.640;2022-12-20T07:19:58;35.30;;;31.83;;
76119;SDS011;64852;48.092;-1.640;2022-12-20T07:22:24;33.80;;;30.90;;
76119;SDS011;64852;48.092;-1.640;2022-12-20T07:24:50;33.22;;;30.42;;
76119;SDS011;64852;48.092;-1.640;2022-12-20T07:27:15;34.90;;;31.80;;
76119;SDS011;64852;48.092;-1.640;2022-12-20T07:29:41;33.83;;;30.83;;
76119;SDS011;64852;48.092;-1.640;2022-12-20T07:32:07;35.63;;;32.42;;
76119;SDS011;64852;48.092;-1.640;2022-12-20T07:34:33;33.10;;;30.20;;
76119;SDS011;64852;48.092;-1.640;2022-12-20T07:37:00;33.60;;;30.70;;
76119;SDS011;64852;48.092;-1.640;2022-12-20T07:39:26;32.33;;;29.43;;
76119;SDS011;64852;48.092;-1.640;2022-12-20T07:41:52;33.27;;;30.37;;
76119;SDS011;64852;48.092;-1.640;2022-12-20T07:44:19;34.80;;;31.25;;
76119;SDS011;64852;48.092;-1.640;2022-12-20T07:46:45;35.60;;;32.60;;
76119;SDS011;64852;48.092;-1.640;2022-12-20T07:49:11;35.50;;;32.70;;
76119;SDS011;64852;48.092;-1.640;2022-12-20T07:51:39;38.85;;;35.85;;
76119;SDS011;64852;48.092;-1.640;2022-12-20T07:54:13;35.72;;;32.22;;
76119;SDS011;64852;48.092;-1.640;2022-12-20T07:56:42;35.03;;;31.92;;
76119;SDS011;64852;48.092;-1.640;2022-12-20T07:59:11;33.88;;;31.02;;
76119;SDS011;64852;48.092;-1.640;2022-12-20T08:01:40;33.60;;;30.80;;
76119;SDS011;64852;48.092;-1.640;2022-12-20T08:04:20;34.60;;;31.70;;
76119;SDS011;64852;48.092;-1.640;2022-12-20T08:06:51;36.33;;;33.42;;
76119;SDS011;64852;48.092;-1.640;2022-12-20T08:09:18;33.65;;;30.75;;
76119;SDS011;64852;48.092;-1.640;2022-12-20T08:11:45;33.55;;;30.75;;
76119;SDS011;64852;48.092;-1.640;2022-12-20T08:14:13;34.22;;;31.52;;
76119;SDS011;64852;48.092;-1.640;2022-12-20T08:16:41;34.45;;;31.75;;
76119;SDS011;64852;48.092;-1.640;2022-12-20T08:21:33;33.85;;;30.95;;
76119;SDS011;64852;48.092;-1.640;2022-12-20T08:23:59;33.85;;;31.05;;
76119;SDS011;64852;48.092;-1.640;2022-12-20T08:26:24;34.42;;;31.52;;
76119;SDS011;64852;48.092;-1.640;2022-12-20T08:28:51;33.72;;;30.92;;
76119;SDS011;64852;48.092;-1.640;2022-12-20T08:31:18;35.05;;;32.00;;
76119;SDS011;64852;48.092;-1.640;2022-12-20T08:33:43;35.47;;;32.57;;
76119;SDS011;64852;48.092;-1.640;2022-12-20T08:36:10;34.55;;;31.77;;
76119;SDS011;64852;48.092;-1.640;2022-12-20T08:38:37;32.58;;;29.88;;
76119;SDS011;64852;48.092;-1.640;2022-12-20T08:41:06;34.08;;;31.38;;
76119;SDS011;64852;48.092;-1.640;2022-12-20T08:43:34;33.67;;;30.77;;
76119;SDS011;64852;48.092;-1.640;2022-12-20T08:46:00;34.35;;;31.15;;
76119;SDS011;64852;48.092;-1.640;2022-12-20T08:48:27;34.78;;;31.88;;
76119;SDS011;64852;48.092;-1.640;2022-12-20T08:50:56;34.00;;;30.65;;
76119;SDS011;64852;48.092;-1.640;2022-12-20T08:53:26;35.00;;;32.10;;
76119;SDS011;64852;48.092;-1.640;2022-12-20T08:55:53;33.47;;;30.67;;
76119;SDS011;64852;48.092;-1.640;2022-12-20T08:58:26;34.45;;;31.65;;
76119;SDS011;64852;48.092;-1.640;2022-12-20T09:00:52;35.23;;;32.33;;
76119;SDS011;64852;48.092;-1.640;2022-12-20T09:03:18;38.30;;;35.10;;
76119;SDS011;64852;48.092;-1.640;2022-12-20T09:05:44;34.22;;;31.52;;
76119;SDS011;64852;48.092;-1.640;2022-12-20T09:08:11;34.60;;;31.55;;
76119;SDS011;64852;48.092;-1.640;2022-12-20T09:10:38;36.47;;;33.38;;
76119;SDS011;64852;48.092;-1.640;2022-12-20T09:13:03;42.03;;;39.00;;
76119;SDS011;64852;48.092;-1.640;2022-12-20T09:15:29;39.27;;;36.10;;
76119;SDS011;64852;48.092;-1.640;2022-12-20T09:17:55;36.45;;;33.58;;
76119;SDS011;64852;48.092;-1.640;2022-12-20T09:20:22;36.10;;;33.40;;
76119;SDS011;64852;48.092;-1.640;2022-12-20T09:22:47;37.72;;;34.72;;
76119;SDS011;64852;48.092;-1.640;2022-12-20T09:25:13;40.13;;;36.10;;
76119;SDS011;64852;48.092;-1.640;2022-12-20T09:27:39;39.17;;;36.17;;
76119;SDS011;64852;48.092;-1.640;2022-12-20T09:30:04;36.47;;;33.47;;
76119;SDS011;64852;48.092;-1.640;2022-12-20T09:32:30;35.92;;;33.03;;
76119;SDS011;64852;48.092;-1.640;2022-12-20T09:34:56;37.47;;;34.00;;
76119;SDS011;64852;48.092;-1.640;2022-12-20T09:37:22;37.50;;;34.50;;
76119;SDS011;64852;48.092;-1.640;2022-12-20T09:39:48;38.93;;;35.47;;
76119;SDS011;64852;48.092;-1.640;2022-12-20T09:42:15;36.25;;;33.25;;
76119;SDS011;64852;48.092;-1.640;2022-12-20T09:44:44;37.55;;;32.78;;
76119;SDS011;64852;48.092;-1.640;2022-12-20T09:47:14;35.45;;;32.42;;
76119;SDS011;64852;48.092;-1.640;2022-12-20T09:49:44;35.95;;;32.95;;
76119;SDS011;64852;48.092;-1.640;2022-12-20T10:00:46;36.00;;;32.90;;
76119;SDS011;64852;48.092;-1.640;2022-12-20T10:03:29;33.20;;;30.50;;
76119;SDS011;64852;48.092;-1.640;2022-12-20T10:06:08;32.78;;;30.00;;
76119;SDS011;64852;48.092;-1.640;2022-12-20T10:11:48;34.80;;;31.50;;
76119;SDS011;64852;48.092;-1.640;2022-12-20T10:14:31;35.03;;;31.95;;
76119;SDS011;64852;48.092;-1.640;2022-12-20T10:17:12;45.00;;;41.50;;
76119;SDS011;64852;48.092;-1.640;2022-12-20T10:22:29;36.47;;;33.47;;
76119;SDS011;64852;48.092;-1.640;2022-12-20T10:25:30;35.97;;;32.78;;
76119;SDS011;64852;48.092;-1.640;2022-12-20T10:27:59;36.53;;;33.45;;
76119;SDS011;64852;48.092;-1.640;2022-12-20T10:30:27;36.10;;;33.17;;
76119;SDS011;64852;48.092;-1.640;2022-12-20T10:32:55;37.05;;;33.95;;
76119;SDS011;64852;48.092;-1.640;2022-12-20T10:35:38;35.03;;;32.10;;
76119;SDS011;64852;48.092;-1.640;2022-12-20T10:38:09;35.30;;;32.35;;
76119;SDS011;64852;48.092;-1.640;2022-12-20T10:43:02;34.97;;;32.07;;
76119;SDS011;64852;48.092;-1.640;2022-12-20T10:45:37;36.03;;;32.92;;
76119;SDS011;64852;48.092;-1.640;2022-12-20T10:48:21;36.17;;;33.10;;
76119;SDS011;64852;48.092;-1.640;2022-12-20T10:51:33;37.03;;;31.40;;
76119;SDS011;64852;48.092;-1.640;2022-12-20T10:54:01;34.88;;;31.98;;
76119;SDS011;64852;48.092;-1.640;2022-12-20T10:56:44;34.90;;;32.00;;
76119;SDS011;64852;48.092;-1.640;2022-12-20T10:59:35;36.53;;;33.13;;
76119;SDS011;64852;48.092;-1.640;2022-12-20T11:02:46;36.15;;;33.25;;
76119;SDS011;64852;48.092;-1.640;2022-12-20T11:05:00;34.25;;;31.35;;
76119;SDS011;64852;48.092;-1.640;2022-12-20T11:07:29;33.50;;;30.40;;
76119;SDS011;64852;48.092;-1.640;2022-12-20T11:09:58;32.85;;;30.05;;
76119;SDS011;64852;48.092;-1.640;2022-12-20T11:12:25;31.73;;;29.00;;
76119;SDS011;64852;48.092;-1.640;2022-12-20T11:15:06;33.25;;;30.45;;
76119;SDS011;64852;48.092;-1.640;2022-12-20T11:17:44;33.22;;;30.45;;
76119;SDS011;64852;48.092;-1.640;2022-12-20T11:23:25;34.15;;;31.27;;
76119;SDS011;64852;48.092;-1.640;2022-12-20T11:36:57;48.83;;;30.95;;
76119;SDS011;64852;48.092;-1.640;2022-12-20T11:42:11;31.90;;;29.10;;
76119;SDS011;64852;48.092;-1.640;2022-12-20T11:52:51;33.72;;;30.73;;
76119;SDS011;64852;48.092;-1.640;2022-12-20T11:58:04;39.10;;;31.23;;
76119;SDS011;64852;48.092;-1.640;2022-12-20T12:00:40;34.22;;;31.42;;
76119;SDS011;64852;48.092;-1.640;2022-12-20T12:03:11;35.13;;;32.30;;
76119;SDS011;64852;48.092;-1.640;2022-12-20T12:06:16;34.38;;;31.38;;
76119;SDS011;64852;48.092;-1.640;2022-12-20T12:11:42;36.53;;;33.28;;
76119;SDS011;64852;48.092;-1.640;2022-12-20T12:23:22;41.72;;;38.42;;
76119;SDS011;64852;48.092;-1.640;2022-12-20T12:26:09;35.97;;;33.03;;
76119;SDS011;64852;48.092;-1.640;2022-12-20T12:28:39;34.45;;;31.55;;
76119;SDS011;64852;48.092;-1.640;2022-12-20T12:31:10;34.35;;;31.45;;
76119;SDS011;64852;48.092;-1.640;2022-12-20T12:33:42;36.10;;;33.05;;
76119;SDS011;64852;48.092;-1.640;2022-12-20T12:45:08;35.35;;;32.25;;
76119;SDS011;64852;48.092;-1.640;2022-12-20T12:48:00;38.08;;;34.78;;
76119;SDS011;64852;48.092;-1.640;2022-12-20T12:50:43;37.78;;;34.70;;
76119;SDS011;64852;48.092;-1.640;2022-12-20T12:58:14;34.92;;;32.13;;
76119;SDS011;64852;48.092;-1.640;2022-12-20T13:03:38;37.53;;;34.63;;
76119;SDS011;64852;48.092;-1.640;2022-12-20T13:13:48;35.17;;;32.38;;
76119;SDS011;64852;48.092;-1.640;2022-12-20T13:16:26;34.53;;;31.63;;
76119;SDS011;64852;48.092;-1.640;2022-12-20T13:18:58;33.85;;;31.02;;
76119;SDS011;64852;48.092;-1.640;2022-12-20T13:21:30;34.67;;;31.88;;
76119;SDS011;64852;48.092;-1.640;2022-12-20T13:40:37;34.08;;;31.27;;
76119;SDS011;64852;48.092;-1.640;2022-12-20T13:48:32;34.75;;;31.85;;
76119;SDS011;64852;48.092;-1.640;2022-12-20T13:51:17;35.85;;;32.25;;
76119;SDS011;64852;48.092;-1.640;2022-12-20T13:53:57;33.85;;;31.15;;
76119;SDS011;64852;48.092;-1.640;2022-12-20T13:58:51;34.77;;;31.87;;
76119;SDS011;64852;48.092;-1.640;2022-12-20T14:01:22;33.83;;;31.00;;
76119;SDS011;64852;48.092;-1.640;2022-12-20T14:03:49;35.47;;;32.67;;
76119;SDS011;64852;48.092;-1.640;2022-12-20T14:06:17;35.70;;;32.80;;
76119;SDS011;64852;48.092;-1.640;2022-12-20T14:08:49;36.60;;;33.60;;
76119;SDS011;64852;48.092;-1.640;2022-12-20T14:11:19;39.83;;;36.72;;
76119;SDS011;64852;48.092;-1.640;2022-12-20T14:13:59;37.42;;;34.50;;
76119;SDS011;64852;48.092;-1.640;2022-12-20T14:16:28;34.00;;;31.27;;
76119;SDS011;64852;48.092;-1.640;2022-12-20T14:21:28;38.42;;;35.33;;
76119;SDS011;64852;48.092;-1.640;2022-12-20T14:23:55;39.45;;;36.42;;
76119;SDS011;64852;48.092;-1.640;2022-12-20T14:26:24;38.70;;;35.80;;
76119;SDS011;64852;48.092;-1.640;2022-12-20T14:29:08;36.17;;;33.28;;
76119;SDS011;64852;48.092;-1.640;2022-12-20T14:31:39;37.25;;;34.35;;
76119;SDS011;64852;48.092;-1.640;2022-12-20T14:36:45;36.80;;;33.90;;
76119;SDS011;64852;48.092;-1.640;2022-12-20T14:41:58;38.38;;;35.38;;
76119;SDS011;64852;48.092;-1.640;2022-12-20T14:44:33;36.53;;;33.63;;
76119;SDS011;64852;48.092;-1.640;2022-12-20T14:47:00;37.97;;;35.08;;
76119;SDS011;64852;48.092;-1.640;2022-12-20T14:49:39;37.05;;;34.25;;
76119;SDS011;64852;48.092;-1.640;2022-12-20T14:57:24;38.13;;;35.22;;
76119;SDS011;64852;48.092;-1.640;2022-12-20T15:02:49;38.05;;;35.17;;
76119;SDS011;64852;48.092;-1.640;2022-12-20T15:10:46;35.17;;;32.58;;
76119;SDS011;64852;48.092;-1.640;2022-12-20T15:13:17;36.47;;;33.67;;
76119;SDS011;64852;48.092;-1.640;2022-12-20T15:15:44;35.25;;;32.53;;
76119;SDS011;64852;48.092;-1.640;2022-12-20T15:18:14;36.90;;;34.00;;
76119;SDS011;64852;48.092;-1.640;2022-12-20T15:20:42;36.55;;;33.75;;
76119;SDS011;64852;48.092;-1.640;2022-12-20T15:23:16;36.20;;;33.40;;
76119;SDS011;64852;48.092;-1.640;2022-12-20T15:25:43;36.55;;;33.75;;
76119;SDS011;64852;48.092;-1.640;2022-12-20T15:28:16;35.75;;;32.95;;
76119;SDS011;64852;48.092;-1.640;2022-12-20T15:30:45;33.85;;;31.25;;
76119;SDS011;64852;48.092;-1.640;2022-12-20T15:33:13;36.10;;;33.40;;
76119;SDS011;64852;48.092;-1.640;2022-12-20T15:35:45;34.40;;;31.70;;
76119;SDS011;64852;48.092;-1.640;2022-12-20T15:38:15;32.83;;;30.23;;
76119;SDS011;64852;48.092;-1.640;2022-12-20T15:40:47;35.38;;;32.72;;
76119;SDS011;64852;48.092;-1.640;2022-12-20T15:43:18;31.65;;;29.25;;
76119;SDS011;64852;48.092;-1.640;2022-12-20T15:45:46;33.75;;;31.15;;
76119;SDS011;64852;48.092;-1.640;2022-12-20T15:48:16;32.75;;;30.35;;
76119;SDS011;64852;48.092;-1.640;2022-12-20T15:50:56;33.28;;;30.70;;
76119;SDS011;64852;48.092;-1.640;2022-12-20T15:53:24;30.43;;;28.13;;
76119;SDS011;64852;48.092;-1.640;2022-12-20T15:55:59;30.67;;;28.23;;
76119;SDS011;64852;48.092;-1.640;2022-12-20T15:58:25;32.13;;;29.73;;
76119;SDS011;64852;48.092;-1.640;2022-12-20T16:00:56;31.20;;;28.80;;
76119;SDS011;64852;48.092;-1.640;2022-12-20T16:03:25;30.73;;;28.15;;
76119;SDS011;64852;48.092;-1.640;2022-12-20T16:05:55;29.88;;;27.60;;
76119;SDS011;64852;48.092;-1.640;2022-12-20T16:08:21;29.35;;;27.15;;
76119;SDS011;64852;48.092;-1.640;2022-12-20T16:10:48;31.03;;;28.83;;
76119;SDS011;64852;48.092;-1.640;2022-12-20T16:13:20;30.92;;;27.90;;
76119;SDS011;64852;48.092;-1.640;2022-12-20T16:15:47;28.25;;;26.05;;
76119;SDS011;64852;48.092;-1.640;2022-12-20T16:20:40;29.02;;;26.83;;
76119;SDS011;64852;48.092;-1.640;2022-12-20T16:23:10;29.80;;;27.50;;
76119;SDS011;64852;48.092;-1.640;2022-12-20T16:25:41;28.88;;;26.67;;
76119;SDS011;64852;48.092;-1.640;2022-12-20T16:28:08;28.27;;;26.00;;
76119;SDS011;64852;48.092;-1.640;2022-12-20T16:30:34;29.00;;;26.80;;
76119;SDS011;64852;48.092;-1.640;2022-12-20T16:33:01;28.83;;;26.53;;
76119;SDS011;64852;48.092;-1.640;2022-12-20T16:35:31;28.50;;;26.30;;
76119;SDS011;64852;48.092;-1.640;2022-12-20T16:37:58;29.00;;;26.70;;
76119;SDS011;64852;48.092;-1.640;2022-12-20T16:40:25;27.67;;;25.48;;
76119;SDS011;64852;48.092;-1.640;2022-12-20T16:42:53;27.05;;;24.95;;
76119;SDS011;64852;48.092;-1.640;2022-12-20T16:45:21;28.30;;;25.58;;
76119;SDS011;64852;48.092;-1.640;2022-12-20T16:47:48;28.42;;;25.90;;
76119;SDS011;64852;48.092;-1.640;2022-12-20T16:50:14;27.25;;;25.15;;
76119;SDS011;64852;48.092;-1.640;2022-12-20T16:55:09;26.83;;;24.63;;
76119;SDS011;64852;48.092;-1.640;2022-12-20T16:57:39;26.77;;;24.67;;
76119;SDS011;64852;48.092;-1.640;2022-12-20T17:00:05;27.85;;;25.65;;
76119;SDS011;64852;48.092;-1.640;2022-12-20T17:04:57;27.00;;;24.90;;
76119;SDS011;64852;48.092;-1.640;2022-12-20T17:07:24;25.45;;;23.45;;
76119;SDS011;64852;48.092;-1.640;2022-12-20T17:09:50;26.40;;;24.35;;
76119;SDS011;64852;48.092;-1.640;2022-12-20T17:12:17;26.60;;;24.50;;